createdAt,value
2017-08-04T00:00:27.384Z,0
2017-08-04T00:01:07.932Z,0
2017-08-04T00:01:48.474Z,0
2017-08-04T00:02:29.005Z,0
2017-08-04T00:03:09.537Z,0
2017-08-04T00:03:50.147Z,0
2017-08-04T00:04:30.694Z,0
2017-08-04T00:05:11.213Z,0
2017-08-04T00:05:51.748Z,0
2017-08-04T00:06:32.294Z,0
2017-08-04T00:07:12.817Z,0
2017-08-04T00:07:53.360Z,0
2017-08-04T00:08:33.894Z,0
2017-08-04T00:09:14.442Z,0
2017-08-04T00:09:54.959Z,0
2017-08-04T00:10:35.492Z,0
2017-08-04T00:11:16.032Z,0
2017-08-04T00:11:56.571Z,0
2017-08-04T00:12:37.104Z,0
2017-08-04T00:13:17.643Z,0
2017-08-04T00:13:58.180Z,0
2017-08-04T00:14:38.716Z,0
2017-08-04T00:15:19.253Z,0
2017-08-04T00:15:59.798Z,0
2017-08-04T00:16:40.329Z,0
2017-08-04T00:17:20.868Z,0
2017-08-04T00:18:01.400Z,0
2017-08-04T00:18:41.949Z,0
2017-08-04T00:19:22.497Z,0
2017-08-04T00:20:03.027Z,0
2017-08-04T00:20:43.566Z,0
2017-08-04T00:21:24.106Z,0
2017-08-04T00:22:04.642Z,0
2017-08-04T00:22:45.177Z,0
2017-08-04T00:23:25.709Z,0
2017-08-04T00:24:06.266Z,0
2017-08-04T00:24:46.802Z,0
2017-08-04T00:25:27.345Z,0
2017-08-04T00:26:07.882Z,0
2017-08-04T00:26:48.421Z,0
2017-08-04T00:27:28.964Z,0
2017-08-04T00:28:09.502Z,0
2017-08-04T00:28:50.050Z,0
2017-08-04T00:29:30.584Z,0
2017-08-04T00:30:11.130Z,0
2017-08-04T00:30:51.668Z,0
2017-08-04T00:31:32.204Z,0
2017-08-04T00:32:12.733Z,0
2017-08-04T00:32:53.272Z,0
2017-08-04T00:33:33.808Z,0
2017-08-04T00:34:14.346Z,0
2017-08-04T00:34:54.903Z,0
2017-08-04T00:35:35.441Z,0
2017-08-04T00:36:15.986Z,0
2017-08-04T00:36:56.526Z,0
2017-08-04T00:37:37.068Z,0
2017-08-04T00:38:17.610Z,0
2017-08-04T00:38:58.151Z,0
2017-08-04T00:39:38.697Z,0
2017-08-04T00:40:19.236Z,0
2017-08-04T00:40:59.775Z,0
2017-08-04T00:41:40.301Z,0
2017-08-04T00:42:20.842Z,0
2017-08-04T00:43:01.361Z,0
2017-08-04T00:43:41.891Z,0
2017-08-04T00:44:22.428Z,0
2017-08-04T00:45:02.961Z,0
2017-08-04T00:45:43.493Z,0
2017-08-04T00:48:23.182Z,0
2017-08-04T00:49:03.724Z,0
2017-08-04T00:49:44.261Z,0
2017-08-04T00:50:24.804Z,0
2017-08-04T00:51:05.341Z,0
2017-08-04T00:51:45.882Z,0
2017-08-04T00:52:26.398Z,0
2017-08-04T00:53:06.931Z,0
2017-08-04T00:53:47.456Z,0
2017-08-04T00:54:27.993Z,0
2017-08-04T00:55:08.527Z,0
2017-08-04T00:55:49.045Z,0
2017-08-04T00:56:29.578Z,0
2017-08-04T00:57:10.111Z,0
2017-08-04T00:57:50.647Z,0
2017-08-04T00:58:31.189Z,0
2017-08-04T00:59:11.717Z,0
2017-08-04T00:59:52.232Z,0
2017-08-04T01:00:32.761Z,0
2017-08-04T01:01:13.298Z,0
2017-08-04T01:01:53.836Z,0
2017-08-04T01:02:34.376Z,0
2017-08-04T01:03:14.912Z,0
2017-08-04T01:03:55.452Z,0
2017-08-04T01:04:35.990Z,0
2017-08-04T01:05:16.531Z,0
2017-08-04T01:05:57.055Z,0
2017-08-04T01:06:37.587Z,0
2017-08-04T01:07:18.132Z,0
2017-08-04T01:07:58.662Z,0
2017-08-04T01:08:39.198Z,0
2017-08-04T01:09:19.736Z,0
2017-08-04T01:10:00.314Z,0
2017-08-04T01:10:40.847Z,0
2017-08-04T01:11:21.373Z,0
2017-08-04T01:12:01.916Z,0
2017-08-04T01:12:42.458Z,0
2017-08-04T01:13:23.002Z,0
2017-08-04T01:14:03.526Z,0
2017-08-04T01:14:44.056Z,0
2017-08-04T01:15:24.596Z,0
2017-08-04T01:16:05.132Z,0
2017-08-04T01:16:45.682Z,0
2017-08-04T01:17:26.211Z,0
2017-08-04T01:18:06.753Z,0
2017-08-04T01:18:47.293Z,0
2017-08-04T01:19:27.830Z,0
2017-08-04T01:20:08.362Z,0
2017-08-04T01:20:48.902Z,0
2017-08-04T01:21:29.442Z,0
2017-08-04T01:22:09.971Z,0
2017-08-04T01:22:50.518Z,0
2017-08-04T01:23:31.048Z,0
2017-08-04T01:24:11.589Z,0
2017-08-04T01:24:52.120Z,0
2017-08-04T01:25:32.655Z,0
2017-08-04T01:26:13.185Z,0
2017-08-04T01:26:53.722Z,0
2017-08-04T01:27:34.261Z,0
2017-08-04T01:28:14.803Z,0
2017-08-04T01:28:55.333Z,0
2017-08-04T01:29:35.860Z,0
2017-08-04T01:30:16.395Z,0
2017-08-04T01:30:56.929Z,0
2017-08-04T01:31:37.464Z,0
2017-08-04T01:32:18.004Z,0
2017-08-04T01:32:58.540Z,0
2017-08-04T01:33:39.089Z,0
2017-08-04T01:34:19.611Z,0
2017-08-04T01:35:00.154Z,0
2017-08-04T01:35:40.691Z,0
2017-08-04T01:36:21.227Z,0
2017-08-04T01:37:01.763Z,0
2017-08-04T01:37:42.308Z,0
2017-08-04T01:38:22.843Z,0
2017-08-04T01:39:03.379Z,0
2017-08-04T01:39:43.915Z,0
2017-08-04T01:40:24.456Z,0
2017-08-04T01:41:04.993Z,0
2017-08-04T01:41:45.533Z,0
2017-08-04T01:42:26.065Z,0
2017-08-04T01:43:06.600Z,0
2017-08-04T01:43:47.134Z,0
2017-08-04T01:44:27.660Z,0
2017-08-04T01:45:08.188Z,0
2017-08-04T01:45:48.736Z,0
2017-08-04T01:46:29.275Z,0
2017-08-04T01:47:09.832Z,0
2017-08-04T01:47:50.373Z,0
2017-08-04T01:48:30.934Z,0
2017-08-04T01:49:11.433Z,0
2017-08-04T01:49:51.974Z,0
2017-08-04T01:50:32.512Z,0
2017-08-04T01:51:16.045Z,0
2017-08-04T01:51:56.583Z,0
2017-08-04T01:52:37.125Z,0
2017-08-04T01:53:17.662Z,0
2017-08-04T01:53:58.204Z,0
2017-08-04T01:54:38.742Z,0
2017-08-04T01:55:19.271Z,0
2017-08-04T01:55:59.814Z,0
2017-08-04T01:56:40.345Z,0
2017-08-04T01:57:20.884Z,0
2017-08-04T01:58:01.430Z,0
2017-08-04T01:58:41.969Z,0
2017-08-04T01:59:22.508Z,0
2017-08-04T02:00:03.047Z,0
2017-08-04T02:00:43.592Z,0
2017-08-04T02:01:24.135Z,0
2017-08-04T02:02:04.662Z,0
2017-08-04T02:02:45.200Z,0
2017-08-04T02:03:25.741Z,0
2017-08-04T02:04:06.272Z,0
2017-08-04T02:04:46.803Z,0
2017-08-04T02:05:27.342Z,0
2017-08-04T02:06:07.892Z,0
2017-08-04T02:06:48.432Z,0
2017-08-04T02:07:28.969Z,0
2017-08-04T02:08:09.506Z,0
2017-08-04T02:08:50.038Z,0
2017-08-04T02:09:30.575Z,0
2017-08-04T02:10:11.107Z,0
2017-08-04T02:10:51.637Z,0
2017-08-04T02:11:32.172Z,0
2017-08-04T02:12:12.702Z,0
2017-08-04T02:12:53.244Z,0
2017-08-04T02:13:33.802Z,0
2017-08-04T02:14:14.313Z,0
2017-08-04T02:14:54.853Z,0
2017-08-04T02:15:35.391Z,0
2017-08-04T02:16:15.927Z,0
2017-08-04T02:16:56.459Z,0
2017-08-04T02:17:36.989Z,0
2017-08-04T02:18:17.536Z,0
2017-08-04T02:18:58.064Z,0
2017-08-04T02:19:38.595Z,0
2017-08-04T02:20:19.157Z,0
2017-08-04T02:20:59.653Z,0
2017-08-04T02:21:40.178Z,0
2017-08-04T02:22:20.716Z,0
2017-08-04T02:23:01.253Z,0
2017-08-04T02:23:41.787Z,0
2017-08-04T02:24:22.315Z,0
2017-08-04T02:25:02.849Z,0
2017-08-04T02:25:43.392Z,0
2017-08-04T02:26:23.922Z,0
2017-08-04T02:27:04.455Z,0
2017-08-04T02:27:44.975Z,0
2017-08-04T02:28:25.502Z,0
2017-08-04T02:29:06.034Z,0
2017-08-04T02:29:46.562Z,0
2017-08-04T02:30:27.100Z,0
2017-08-04T02:31:07.627Z,0
2017-08-04T02:31:48.162Z,0
2017-08-04T02:32:28.700Z,0
2017-08-04T02:33:09.237Z,0
2017-08-04T02:33:49.775Z,0
2017-08-04T02:34:30.309Z,0
2017-08-04T02:35:10.847Z,0
2017-08-04T02:35:51.373Z,0
2017-08-04T02:36:31.911Z,0
2017-08-04T02:37:12.438Z,0
2017-08-04T02:37:52.980Z,0
2017-08-04T02:38:33.519Z,0
2017-08-04T02:39:14.050Z,0
2017-08-04T02:39:54.585Z,0
2017-08-04T02:40:35.121Z,0
2017-08-04T02:41:15.662Z,0
2017-08-04T02:41:56.203Z,0
2017-08-04T02:42:36.741Z,0
2017-08-04T02:43:17.283Z,0
2017-08-04T02:43:57.811Z,0
2017-08-04T02:44:38.349Z,0
2017-08-04T02:45:18.870Z,0
2017-08-04T02:45:59.386Z,0
2017-08-04T02:46:39.933Z,0
2017-08-04T02:47:20.467Z,0
2017-08-04T02:48:01.012Z,0
2017-08-04T02:48:41.550Z,0
2017-08-04T02:49:22.082Z,0
2017-08-04T02:50:02.611Z,0
2017-08-04T02:50:43.147Z,0
2017-08-04T02:51:23.673Z,0
2017-08-04T02:52:04.203Z,0
2017-08-04T02:52:44.732Z,0
2017-08-04T02:53:25.273Z,0
2017-08-04T02:54:05.812Z,0
2017-08-04T02:54:46.345Z,0
2017-08-04T02:55:26.892Z,0
2017-08-04T02:56:07.412Z,0
2017-08-04T02:56:47.948Z,0
2017-08-04T02:57:28.488Z,0
2017-08-04T02:58:09.028Z,0
2017-08-04T02:58:49.563Z,0
2017-08-04T02:59:30.095Z,0
2017-08-04T03:00:10.630Z,0
2017-08-04T03:00:51.164Z,0
2017-08-04T03:01:31.705Z,0
2017-08-04T03:02:12.249Z,0
2017-08-04T03:02:52.782Z,0
2017-08-04T03:03:33.318Z,0
2017-08-04T03:04:13.856Z,0
2017-08-04T03:04:54.400Z,0
2017-08-04T03:05:34.941Z,0
2017-08-04T03:06:15.485Z,0
2017-08-04T03:06:56.019Z,0
2017-08-04T03:07:36.558Z,0
2017-08-04T03:08:17.101Z,0
2017-08-04T03:08:57.630Z,0
2017-08-04T03:09:38.175Z,0
2017-08-04T03:10:18.709Z,0
2017-08-04T03:10:59.248Z,0
2017-08-04T03:11:39.778Z,0
2017-08-04T03:12:20.313Z,0
2017-08-04T03:13:00.845Z,0
2017-08-04T03:13:41.376Z,0
2017-08-04T03:14:21.925Z,0
2017-08-04T03:15:02.468Z,0
2017-08-04T03:15:43.012Z,0
2017-08-04T03:16:23.543Z,0
2017-08-04T03:17:04.068Z,0
2017-08-04T03:17:44.607Z,0
2017-08-04T03:18:25.136Z,0
2017-08-04T03:19:05.676Z,0
2017-08-04T03:19:46.215Z,0
2017-08-04T03:20:26.721Z,0
2017-08-04T03:21:07.250Z,0
2017-08-04T03:21:47.796Z,0
2017-08-04T03:22:28.336Z,0
2017-08-04T03:23:08.870Z,0
2017-08-04T03:23:49.409Z,0
2017-08-04T03:24:29.932Z,0
2017-08-04T03:25:10.466Z,0
2017-08-04T03:25:50.988Z,0
2017-08-04T03:26:31.521Z,0
2017-08-04T03:27:12.070Z,0
2017-08-04T03:27:52.612Z,0
2017-08-04T03:28:33.150Z,0
2017-08-04T03:29:13.684Z,0
2017-08-04T03:29:54.218Z,0
2017-08-04T03:30:34.756Z,0
2017-08-04T03:31:15.293Z,0
2017-08-04T03:31:55.824Z,0
2017-08-04T03:32:36.374Z,0
2017-08-04T03:33:16.913Z,0
2017-08-04T03:33:57.450Z,0
2017-08-04T03:34:37.975Z,0
2017-08-04T03:35:18.511Z,0
2017-08-04T03:35:59.048Z,0
2017-08-04T03:36:39.590Z,0
2017-08-04T03:37:20.133Z,0
2017-08-04T03:38:00.681Z,0
2017-08-04T03:38:41.215Z,0
2017-08-04T03:39:21.751Z,0
2017-08-04T03:40:02.285Z,0
2017-08-04T03:40:42.820Z,0
2017-08-04T03:41:23.367Z,0
2017-08-04T03:42:03.898Z,0
2017-08-04T03:42:44.431Z,0
2017-08-04T03:43:24.968Z,0
2017-08-04T03:44:05.494Z,0
2017-08-04T03:44:46.016Z,0
2017-08-04T03:45:26.572Z,0
2017-08-04T03:46:07.120Z,0
2017-08-04T03:46:47.654Z,0
2017-08-04T03:47:28.187Z,0
2017-08-04T03:48:08.722Z,0
2017-08-04T03:48:49.253Z,0
2017-08-04T03:49:29.793Z,0
2017-08-04T03:50:10.347Z,0
2017-08-04T03:50:50.863Z,0
2017-08-04T03:51:31.403Z,0
2017-08-04T03:52:11.951Z,0
2017-08-04T03:52:52.481Z,0
2017-08-04T03:53:33.022Z,0
2017-08-04T03:54:13.548Z,0
2017-08-04T03:54:54.086Z,0
2017-08-04T03:55:34.629Z,0
2017-08-04T03:56:15.180Z,0
2017-08-04T03:56:55.729Z,0
2017-08-04T03:57:36.269Z,0
2017-08-04T03:58:16.805Z,0
2017-08-04T03:58:57.337Z,0
2017-08-04T03:59:37.884Z,0
2017-08-04T04:00:18.421Z,0
2017-08-04T04:00:58.944Z,0
2017-08-04T04:01:39.476Z,0
2017-08-04T04:02:20.006Z,0
2017-08-04T04:03:00.554Z,0
2017-08-04T04:03:41.074Z,0
2017-08-04T04:04:21.607Z,0
2017-08-04T04:05:02.142Z,0
2017-08-04T04:05:42.672Z,5
2017-08-04T04:06:23.202Z,5
2017-08-04T04:07:03.729Z,5
2017-08-04T04:07:44.268Z,5
2017-08-04T04:08:24.800Z,5
2017-08-04T04:09:05.338Z,5
2017-08-04T04:09:45.875Z,5
2017-08-04T04:10:26.420Z,5
2017-08-04T04:11:06.954Z,5
2017-08-04T04:11:47.493Z,5
2017-08-04T04:12:28.029Z,5
2017-08-04T04:13:08.572Z,5
2017-08-04T04:13:49.093Z,5
2017-08-04T04:14:29.628Z,5
2017-08-04T04:15:10.168Z,5
2017-08-04T04:15:50.712Z,5
2017-08-04T04:16:31.251Z,5
2017-08-04T04:17:11.788Z,10
2017-08-04T04:17:52.332Z,10
2017-08-04T04:18:32.872Z,10
2017-08-04T04:19:13.410Z,10
2017-08-04T04:19:53.948Z,10
2017-08-04T04:20:34.485Z,10
2017-08-04T04:21:15.033Z,10
2017-08-04T04:21:55.568Z,10
2017-08-04T04:22:36.115Z,10
2017-08-04T04:23:16.648Z,10
2017-08-04T04:23:57.181Z,10
2017-08-04T04:24:37.715Z,10
2017-08-04T04:25:18.251Z,10
2017-08-04T04:25:58.790Z,10
2017-08-04T04:26:39.320Z,10
2017-08-04T04:27:19.857Z,10
2017-08-04T04:28:00.391Z,10
2017-08-04T04:28:40.929Z,10
2017-08-04T04:29:21.468Z,10
2017-08-04T04:30:02.000Z,10
2017-08-04T04:30:42.536Z,10
2017-08-04T04:31:23.075Z,10
2017-08-04T04:32:03.605Z,15
2017-08-04T04:32:44.145Z,15
2017-08-04T04:33:24.727Z,15
2017-08-04T04:34:05.300Z,15
2017-08-04T04:34:45.837Z,15
2017-08-04T04:35:26.381Z,20
2017-08-04T04:36:06.918Z,20
2017-08-04T04:36:47.440Z,20
2017-08-04T04:37:27.976Z,20
2017-08-04T04:38:08.515Z,25
2017-08-04T04:38:49.054Z,25
2017-08-04T04:39:29.602Z,25
2017-08-04T04:40:10.127Z,25
2017-08-04T04:40:50.662Z,25
2017-08-04T04:41:31.200Z,30
2017-08-04T04:42:11.739Z,30
2017-08-04T04:42:52.279Z,30
2017-08-04T04:43:32.817Z,30
2017-08-04T04:44:13.356Z,30
2017-08-04T04:44:53.889Z,25
2017-08-04T04:45:34.426Z,25
2017-08-04T04:46:14.953Z,30
2017-08-04T04:46:55.496Z,30
2017-08-04T04:47:36.007Z,30
2017-08-04T04:48:16.550Z,25
2017-08-04T04:48:57.090Z,25
2017-08-04T04:49:37.618Z,20
2017-08-04T04:50:18.162Z,25
2017-08-04T04:50:58.691Z,25
2017-08-04T04:51:39.229Z,30
2017-08-04T04:52:19.763Z,30
2017-08-04T04:53:00.294Z,35
2017-08-04T04:53:40.824Z,35
2017-08-04T04:54:21.352Z,35
2017-08-04T04:55:01.884Z,30
2017-08-04T04:55:42.428Z,25
2017-08-04T04:56:22.968Z,20
2017-08-04T04:57:03.506Z,20
2017-08-04T04:57:44.047Z,20
2017-08-04T04:58:24.583Z,20
2017-08-04T04:59:05.118Z,20
2017-08-04T04:59:45.641Z,20
2017-08-04T05:00:26.184Z,20
2017-08-04T05:01:06.724Z,25
2017-08-04T05:01:47.262Z,25
2017-08-04T05:02:27.801Z,25
2017-08-04T05:03:08.344Z,25
2017-08-04T05:03:48.880Z,30
2017-08-04T05:04:29.421Z,35
2017-08-04T05:05:09.958Z,35
2017-08-04T05:05:50.497Z,40
2017-08-04T05:06:31.026Z,40
2017-08-04T05:07:11.558Z,45
2017-08-04T05:07:52.097Z,40
2017-08-04T05:08:32.625Z,40
2017-08-04T05:09:13.164Z,35
2017-08-04T05:09:53.721Z,40
2017-08-04T05:10:34.244Z,40
2017-08-04T05:11:14.793Z,45
2017-08-04T05:11:55.330Z,50
2017-08-04T05:12:35.877Z,45
2017-08-04T05:13:16.420Z,45
2017-08-04T05:13:56.960Z,45
2017-08-04T05:14:37.503Z,45
2017-08-04T05:15:18.038Z,45
2017-08-04T05:15:58.570Z,45
2017-08-04T05:16:39.105Z,45
2017-08-04T05:17:19.643Z,45
2017-08-04T05:18:00.184Z,45
2017-08-04T05:18:40.727Z,50
2017-08-04T05:19:21.258Z,50
2017-08-04T05:20:01.788Z,50
2017-08-04T05:20:42.325Z,55
2017-08-04T05:21:22.859Z,55
2017-08-04T05:22:03.390Z,55
2017-08-04T05:22:43.932Z,55
2017-08-04T05:23:24.471Z,55
2017-08-04T05:24:05.004Z,50
2017-08-04T05:24:45.533Z,50
2017-08-04T05:25:26.070Z,50
2017-08-04T05:26:06.610Z,50
2017-08-04T05:26:47.150Z,55
2017-08-04T05:27:27.696Z,55
2017-08-04T05:28:08.232Z,60
2017-08-04T05:28:48.776Z,70
2017-08-04T05:29:29.324Z,75
2017-08-04T05:30:09.862Z,75
2017-08-04T05:30:50.399Z,80
2017-08-04T05:31:30.936Z,85
2017-08-04T05:32:11.521Z,90
2017-08-04T05:32:52.061Z,90
2017-08-04T05:33:32.599Z,90
2017-08-04T05:34:13.140Z,95
2017-08-04T05:34:53.676Z,100
2017-08-04T05:35:34.213Z,100
2017-08-04T05:36:14.753Z,100
2017-08-04T05:36:55.293Z,100
2017-08-04T05:37:35.835Z,100
2017-08-04T05:38:16.372Z,105
2017-08-04T05:38:56.906Z,105
2017-08-04T05:39:37.442Z,110
2017-08-04T05:40:17.978Z,110
2017-08-04T05:40:58.521Z,105
2017-08-04T05:41:39.058Z,100
2017-08-04T05:42:19.601Z,110
2017-08-04T05:43:00.138Z,115
2017-08-04T05:43:40.666Z,120
2017-08-04T05:44:21.201Z,125
2017-08-04T05:45:01.732Z,120
2017-08-04T05:45:42.268Z,115
2017-08-04T05:46:22.813Z,110
2017-08-04T05:47:03.351Z,115
2017-08-04T05:47:43.888Z,120
2017-08-04T05:48:24.426Z,120
2017-08-04T05:49:04.964Z,115
2017-08-04T05:49:45.501Z,110
2017-08-04T05:50:26.033Z,100
2017-08-04T05:51:06.565Z,90
2017-08-04T05:51:47.107Z,90
2017-08-04T05:52:27.646Z,80
2017-08-04T05:53:08.187Z,85
2017-08-04T05:53:48.726Z,90
2017-08-04T05:54:29.264Z,100
2017-08-04T05:55:09.802Z,95
2017-08-04T05:55:50.343Z,90
2017-08-04T05:56:30.884Z,95
2017-08-04T05:57:11.423Z,100
2017-08-04T05:57:51.955Z,95
2017-08-04T05:58:32.504Z,95
2017-08-04T05:59:13.055Z,90
2017-08-04T05:59:53.581Z,100
2017-08-04T06:00:34.118Z,105
2017-08-04T06:01:14.706Z,105
2017-08-04T06:01:55.243Z,110
2017-08-04T06:02:35.777Z,115
2017-08-04T06:03:16.315Z,120
2017-08-04T06:03:56.854Z,135
2017-08-04T06:04:37.384Z,135
2017-08-04T06:05:17.926Z,135
2017-08-04T06:05:58.462Z,145
2017-08-04T06:06:39.009Z,145
2017-08-04T06:07:19.566Z,145
2017-08-04T06:08:00.081Z,145
2017-08-04T06:08:40.618Z,145
2017-08-04T06:09:21.160Z,145
2017-08-04T06:10:01.695Z,145
2017-08-04T06:10:42.238Z,145
2017-08-04T06:11:22.778Z,145
2017-08-04T06:12:03.324Z,145
2017-08-04T06:12:43.856Z,145
2017-08-04T06:13:24.384Z,140
2017-08-04T06:14:04.916Z,135
2017-08-04T06:14:45.442Z,130
2017-08-04T06:15:25.989Z,130
2017-08-04T06:16:06.521Z,135
2017-08-04T06:16:47.070Z,150
2017-08-04T06:17:27.597Z,155
2017-08-04T06:18:08.127Z,160
2017-08-04T06:18:48.664Z,160
2017-08-04T06:19:29.208Z,165
2017-08-04T06:20:09.747Z,170
2017-08-04T06:20:50.294Z,180
2017-08-04T06:21:30.887Z,180
2017-08-04T06:22:11.423Z,185
2017-08-04T06:22:51.955Z,180
2017-08-04T06:23:32.488Z,185
2017-08-04T06:24:13.037Z,185
2017-08-04T06:24:53.565Z,190
2017-08-04T06:25:34.106Z,195
2017-08-04T06:26:14.638Z,190
2017-08-04T06:26:55.172Z,200
2017-08-04T06:27:35.714Z,200
2017-08-04T06:28:16.251Z,200
2017-08-04T06:28:56.789Z,205
2017-08-04T06:29:37.315Z,200
2017-08-04T06:30:17.847Z,205
2017-08-04T06:30:58.389Z,205
2017-08-04T06:31:38.929Z,205
2017-08-04T06:32:19.472Z,205
2017-08-04T06:33:00.007Z,210
2017-08-04T06:33:40.548Z,215
2017-08-04T06:34:21.088Z,220
2017-08-04T06:35:01.624Z,225
2017-08-04T06:35:42.160Z,225
2017-08-04T06:36:22.704Z,235
2017-08-04T06:37:03.232Z,235
2017-08-04T06:37:43.775Z,235
2017-08-04T06:38:24.311Z,235
2017-08-04T06:39:04.852Z,240
2017-08-04T06:39:45.383Z,240
2017-08-04T06:40:25.903Z,240
2017-08-04T06:41:06.448Z,230
2017-08-04T06:41:46.990Z,220
2017-08-04T06:42:27.523Z,215
2017-08-04T06:43:08.065Z,215
2017-08-04T06:43:48.602Z,220
2017-08-04T06:44:29.146Z,225
2017-08-04T06:45:09.672Z,225
2017-08-04T06:45:50.201Z,230
2017-08-04T06:46:30.724Z,240
2017-08-04T06:47:11.264Z,250
2017-08-04T06:47:51.847Z,245
2017-08-04T06:48:32.380Z,215
2017-08-04T06:49:12.922Z,180
2017-08-04T06:49:53.471Z,165
2017-08-04T06:50:34.011Z,155
2017-08-04T06:51:14.553Z,145
2017-08-04T06:51:55.076Z,145
2017-08-04T06:52:35.604Z,140
2017-08-04T06:53:16.137Z,150
2017-08-04T06:53:56.675Z,150
2017-08-04T06:54:37.209Z,155
2017-08-04T06:55:17.756Z,150
2017-08-04T06:55:58.285Z,150
2017-08-04T06:56:38.825Z,135
2017-08-04T06:57:19.369Z,125
2017-08-04T06:57:59.912Z,125
2017-08-04T06:58:40.448Z,130
2017-08-04T06:59:20.993Z,130
2017-08-04T07:00:01.530Z,110
2017-08-04T07:00:42.060Z,90
2017-08-04T07:01:22.592Z,90
2017-08-04T07:02:03.143Z,90
2017-08-04T07:02:43.667Z,85
2017-08-04T07:03:24.207Z,85
2017-08-04T07:04:04.748Z,85
2017-08-04T07:04:45.289Z,80
2017-08-04T07:05:25.838Z,75
2017-08-04T07:06:06.448Z,70
2017-08-04T07:06:46.985Z,65
2017-08-04T07:07:27.524Z,70
2017-08-04T07:08:08.066Z,70
2017-08-04T07:08:48.596Z,80
2017-08-04T07:09:29.141Z,90
2017-08-04T07:10:09.682Z,95
2017-08-04T07:10:50.220Z,95
2017-08-04T07:11:30.763Z,95
2017-08-04T07:12:11.289Z,95
2017-08-04T07:12:51.826Z,95
2017-08-04T07:13:32.374Z,95
2017-08-04T07:14:12.904Z,90
2017-08-04T07:14:53.444Z,90
2017-08-04T07:15:34.021Z,90
2017-08-04T07:16:14.551Z,90
2017-08-04T07:16:55.090Z,85
2017-08-04T07:17:35.630Z,75
2017-08-04T07:18:16.166Z,80
2017-08-04T07:18:56.709Z,80
2017-08-04T07:19:37.252Z,90
2017-08-04T07:20:17.792Z,110
2017-08-04T07:20:58.334Z,120
2017-08-04T07:21:38.878Z,135
2017-08-04T07:22:19.418Z,145
2017-08-04T07:22:59.954Z,155
2017-08-04T07:23:40.497Z,145
2017-08-04T07:24:21.027Z,130
2017-08-04T07:25:01.570Z,115
2017-08-04T07:25:42.114Z,105
2017-08-04T07:26:22.653Z,105
2017-08-04T07:27:03.193Z,115
2017-08-04T07:27:43.730Z,120
2017-08-04T07:28:24.264Z,120
2017-08-04T07:29:04.809Z,120
2017-08-04T07:29:45.340Z,145
2017-08-04T07:30:25.878Z,175
2017-08-04T07:31:06.413Z,205
2017-08-04T07:31:46.953Z,230
2017-08-04T07:32:27.499Z,230
2017-08-04T07:33:08.040Z,210
2017-08-04T07:33:48.570Z,190
2017-08-04T07:34:29.115Z,185
2017-08-04T07:35:09.713Z,190
2017-08-04T07:35:50.232Z,185
2017-08-04T07:36:30.768Z,175
2017-08-04T07:37:11.308Z,180
2017-08-04T07:37:51.870Z,180
2017-08-04T07:38:32.386Z,165
2017-08-04T07:39:12.927Z,155
2017-08-04T07:39:53.471Z,145
2017-08-04T07:40:34.006Z,130
2017-08-04T07:41:14.569Z,120
2017-08-04T07:41:55.114Z,120
2017-08-04T07:42:35.659Z,120
2017-08-04T07:43:16.200Z,125
2017-08-04T07:43:56.739Z,130
2017-08-04T07:44:37.278Z,135
2017-08-04T07:45:17.819Z,145
2017-08-04T07:45:58.361Z,155
2017-08-04T07:46:38.897Z,185
2017-08-04T07:47:19.431Z,195
2017-08-04T07:47:59.964Z,185
2017-08-04T07:48:40.490Z,195
2017-08-04T07:49:21.028Z,200
2017-08-04T07:50:01.577Z,225
2017-08-04T07:50:42.111Z,235
2017-08-04T07:51:22.651Z,240
2017-08-04T07:52:03.195Z,240
2017-08-04T07:52:43.728Z,250
2017-08-04T07:53:24.262Z,265
2017-08-04T07:54:04.802Z,265
2017-08-04T07:54:45.348Z,265
2017-08-04T07:55:25.886Z,260
2017-08-04T07:56:06.420Z,280
2017-08-04T07:56:46.975Z,285
2017-08-04T07:57:27.518Z,265
2017-08-04T07:58:08.061Z,250
2017-08-04T07:58:48.596Z,240
2017-08-04T07:59:29.137Z,235
2017-08-04T08:00:09.677Z,230
2017-08-04T08:00:50.217Z,210
2017-08-04T08:01:30.765Z,190
2017-08-04T08:02:11.308Z,180
2017-08-04T08:02:51.855Z,175
2017-08-04T08:03:32.397Z,170
2017-08-04T08:04:12.944Z,165
2017-08-04T08:04:53.485Z,160
2017-08-04T08:05:34.010Z,160
2017-08-04T08:06:14.547Z,155
2017-08-04T08:06:55.084Z,155
2017-08-04T08:07:35.613Z,155
2017-08-04T08:08:16.132Z,160
2017-08-04T08:08:56.665Z,160
2017-08-04T08:09:37.231Z,160
2017-08-04T08:10:17.785Z,170
2017-08-04T08:10:58.324Z,185
2017-08-04T08:11:38.864Z,190
2017-08-04T08:12:19.398Z,195
2017-08-04T08:12:59.937Z,205
2017-08-04T08:13:40.480Z,220
2017-08-04T08:14:21.021Z,235
2017-08-04T08:15:01.559Z,260
2017-08-04T08:15:42.102Z,290
2017-08-04T08:16:22.636Z,325
2017-08-04T08:17:03.165Z,355
2017-08-04T08:17:43.706Z,380
2017-08-04T08:18:24.243Z,380
2017-08-04T08:19:04.775Z,355
2017-08-04T08:19:45.312Z,315
2017-08-04T08:20:25.856Z,280
2017-08-04T08:21:06.397Z,290
2017-08-04T08:21:46.941Z,310
2017-08-04T08:22:27.480Z,330
2017-08-04T08:23:08.019Z,345
2017-08-04T08:23:48.559Z,385
2017-08-04T08:24:29.093Z,405
2017-08-04T08:25:09.617Z,415
2017-08-04T08:25:50.148Z,435
2017-08-04T08:26:30.690Z,445
2017-08-04T08:27:11.216Z,450
2017-08-04T08:27:51.746Z,460
2017-08-04T08:28:32.286Z,480
2017-08-04T08:29:12.899Z,470
2017-08-04T08:29:53.469Z,470
2017-08-04T08:30:33.999Z,435
2017-08-04T08:31:14.528Z,395
2017-08-04T08:31:55.043Z,390
2017-08-04T08:32:35.594Z,360
2017-08-04T08:33:16.130Z,355
2017-08-04T08:33:56.667Z,350
2017-08-04T08:34:37.190Z,330
2017-08-04T08:35:17.724Z,305
2017-08-04T08:35:58.259Z,320
2017-08-04T08:36:38.801Z,320
2017-08-04T08:37:19.341Z,315
2017-08-04T08:37:59.876Z,300
2017-08-04T08:38:40.415Z,275
2017-08-04T08:39:20.967Z,265
2017-08-04T08:40:01.489Z,265
2017-08-04T08:40:42.036Z,265
2017-08-04T08:41:22.576Z,270
2017-08-04T08:42:03.106Z,305
2017-08-04T08:42:43.646Z,370
2017-08-04T08:43:24.190Z,405
2017-08-04T08:44:04.748Z,435
2017-08-04T08:44:45.279Z,400
2017-08-04T08:45:25.821Z,310
2017-08-04T08:46:06.356Z,280
2017-08-04T08:46:46.893Z,275
2017-08-04T08:47:27.411Z,325
2017-08-04T08:48:07.943Z,315
2017-08-04T08:48:48.480Z,315
2017-08-04T08:49:29.018Z,345
2017-08-04T08:50:09.566Z,355
2017-08-04T08:50:50.105Z,350
2017-08-04T08:51:30.631Z,335
2017-08-04T08:52:11.169Z,290
2017-08-04T08:52:51.704Z,310
2017-08-04T08:53:32.234Z,305
2017-08-04T08:54:12.769Z,340
2017-08-04T08:54:53.310Z,820
2017-08-04T08:55:33.848Z,290
2017-08-04T08:56:14.390Z,335
2017-08-04T08:56:54.929Z,310
2017-08-04T08:57:35.466Z,275
2017-08-04T08:58:16.011Z,295
2017-08-04T08:58:56.557Z,310
2017-08-04T08:59:37.097Z,280
2017-08-04T09:00:17.649Z,245
2017-08-04T09:00:58.199Z,255
2017-08-04T09:01:38.740Z,245
2017-08-04T09:02:19.281Z,245
2017-08-04T09:02:59.823Z,245
2017-08-04T09:03:40.397Z,225
2017-08-04T09:04:20.935Z,250
2017-08-04T09:05:01.484Z,315
2017-08-04T09:05:42.008Z,390
2017-08-04T09:06:22.554Z,480
2017-08-04T09:07:03.097Z,595
2017-08-04T09:07:43.626Z,670
2017-08-04T09:08:24.166Z,2780
2017-08-04T09:09:04.705Z,735
2017-08-04T09:09:45.249Z,570
2017-08-04T09:10:25.792Z,580
2017-08-04T09:11:06.326Z,605
2017-08-04T09:11:46.865Z,620
2017-08-04T09:12:27.406Z,830
2017-08-04T09:13:07.969Z,785
2017-08-04T09:13:48.511Z,800
2017-08-04T09:14:29.051Z,910
2017-08-04T09:15:09.592Z,915
2017-08-04T09:15:50.134Z,815
2017-08-04T09:16:30.678Z,795
2017-08-04T09:17:11.223Z,905
2017-08-04T09:17:51.765Z,855
2017-08-04T09:18:32.308Z,925
2017-08-04T09:19:12.860Z,840
2017-08-04T09:19:53.395Z,850
2017-08-04T09:20:33.932Z,830
2017-08-04T09:21:14.477Z,825
2017-08-04T09:21:55.021Z,830
2017-08-04T09:22:35.557Z,825
2017-08-04T09:23:16.094Z,740
2017-08-04T09:23:56.657Z,755
2017-08-04T09:24:37.174Z,910
2017-08-04T09:25:17.723Z,970
2017-08-04T09:25:58.265Z,835
2017-08-04T09:26:38.806Z,930
2017-08-04T09:27:19.347Z,895
2017-08-04T09:27:59.882Z,785
2017-08-04T09:28:40.410Z,680
2017-08-04T09:29:20.954Z,640
2017-08-04T09:30:01.496Z,600
2017-08-04T09:30:42.048Z,565
2017-08-04T09:31:22.587Z,555
2017-08-04T09:32:03.136Z,570
2017-08-04T09:32:43.682Z,735
2017-08-04T09:33:24.254Z,705
2017-08-04T09:34:04.789Z,1320
2017-08-04T09:34:45.335Z,690
2017-08-04T09:35:25.881Z,650
2017-08-04T09:36:06.414Z,800
2017-08-04T09:36:46.947Z,1255
2017-08-04T09:37:27.487Z,880
2017-08-04T09:38:08.028Z,830
2017-08-04T09:38:48.567Z,845
2017-08-04T09:39:29.107Z,740
2017-08-04T09:40:09.651Z,1095
2017-08-04T09:40:50.192Z,790
2017-08-04T09:41:30.734Z,720